| time (UTC) | temp C | wind direction | speed KPH | gust KPH | rain 1hr cm | rain 24hr cm | rain mn cm | humidity % | barometer mb |
| 20260506183033 | 16 | 360 | 3.2 | 12.9 | 0.03 | 0.46 | 0.46 | 95 | 1005.3 |
| 20260506181530 | 16 | 360 | 1.6 | 14.5 | 0.00 | 0.43 | 0.43 | 96 | 1005.4 |
| 20260506180036 | 16 | 360 | 4.8 | 17.7 | 0.00 | 0.43 | 0.43 | 96 | 1005.5 |
| 20260506174534 | 16 | 360 | 3.2 | 19.3 | 0.03 | 0.43 | 0.43 | 96 | 1005.5 |
| 20260506173039 | 16 | 360 | 4.8 | 17.7 | 0.10 | 0.43 | 0.43 | 96 | 1005.5 |
| 20260506171544 | 16 | 360 | 1.6 | 17.7 | 0.13 | 0.43 | 0.43 | 96 | 1005.6 |
| 20260506170033 | 15 | 360 | 6.4 | 22.5 | 0.15 | 0.43 | 0.43 | 95 | 1005.8 |
| 20260506164532 | 15 | 360 | 3.2 | 16.1 | 0.18 | 0.41 | 0.41 | 95 | 1006.0 |
| 20260506163034 | 15 | 360 | 4.8 | 14.5 | 0.15 | 0.33 | 0.33 | 96 | 1006.2 |
| 20260506161532 | 15 | 360 | 1.6 | 14.5 | 0.18 | 0.30 | 0.30 | 95 | 1006.4 |
| 20260506160031 | 15 | 360 | 1.6 | 14.5 | 0.18 | 0.28 | 0.28 | 95 | 1006.5 |
| 20260506154533 | 15 | 0 | 0.0 | 3.2 | 0.20 | 0.23 | 0.23 | 93 | 1006.8 |
| 20260506153032 | 14 | 0 | 0.0 | 1.6 | 0.15 | 0.15 | 0.15 | 92 | 1006.8 |
| 20260506151538 | 14 | 0 | 0.0 | 0.0 | 0.13 | 0.13 | 0.13 | 91 | 1006.8 |
| 20260506150032 | 14 | 0 | 0.0 | 1.6 | 0.10 | 0.10 | 0.10 | 90 | 1007.0 |
| 20260506144534 | 14 | 0 | 0.0 | 1.6 | 0.03 | 0.03 | 0.03 | 90 | 1007.2 |
| 20260506143034 | 14 | 0 | 0.0 | 1.6 | 0.00 | 0.00 | 0.00 | 89 | 1007.4 |
| 20260506141532 | 14 | 0 | 0.0 | 1.6 | 0.00 | 0.00 | 0.00 | 88 | 1007.6 |
| 20260506140034 | 14 | 0 | 0.0 | 1.6 | 0.00 | 0.00 | 0.00 | 89 | 1007.4 |
| 20260506134529 | 13 | 0 | 0.0 | 1.6 | 0.00 | 0.00 | 0.00 | 89 | 1007.2 |
| 20260506133031 | 13 | 0 | 0.0 | 1.6 | 0.00 | 0.00 | 0.00 | 90 | 1007.2 |
| 20260506131542 | 13 | 0 | 0.0 | 1.6 | 0.00 | 0.00 | 0.00 | 91 | 1007.0 |
| 20260506130030 | 13 | 0 | 0.0 | 1.6 | 0.00 | 0.00 | 0.00 | 91 | 1007.2 |
| 20260506124534 | 12 | 0 | 0.0 | 3.2 | 0.00 | 0.00 | 0.00 | 91 | 1007.2 |
| 20260506123030 | 12 | 0 | 0.0 | 1.6 | 0.00 | 0.00 | 0.00 | 92 | 1007.7 |
| 20260506121529 | 12 | 0 | 0.0 | 1.6 | 0.00 | 0.00 | 0.00 | 93 | 1008.1 |
| 20260506120033 | 12 | 0 | 0.0 | 1.6 | 0.00 | 0.00 | 0.00 | 93 | 1008.0 |
| 20260506114538 | 12 | 360 | 0.0 | 3.2 | 0.00 | 0.00 | 0.00 | 93 | 1007.7 |
| 20260506113031 | 12 | 0 | 0.0 | 3.2 | 0.00 | 0.00 | 0.00 | 93 | 1007.7 |
| 20260506111530 | 12 | 0 | 0.0 | 1.6 | 0.00 | 0.00 | 0.00 | 93 | 1007.7 |
| 20260506110034 | 12 | 0 | 0.0 | 0.0 | 0.00 | 0.00 | 0.00 | 93 | 1007.2 |
| 20260506104537 | 11 | 0 | 0.0 | 1.6 | 0.00 | 0.00 | 0.00 | 93 | 1007.4 |
| 20260506103034 | 11 | 0 | 0.0 | 3.2 | 0.00 | 0.00 | 0.00 | 92 | 1007.4 |
| 20260506101533 | 11 | 0 | 0.0 | 1.6 | 0.00 | 0.00 | 0.00 | 92 | 1007.2 |
| 20260506100032 | 11 | 0 | 0.0 | 3.2 | 0.00 | 0.00 | 0.00 | 92 | 1007.1 |
| 20260506094532 | 11 | 0 | 0.0 | 1.6 | 0.00 | 0.00 | 0.00 | 90 | 1007.3 |
| 20260506093033 | 12 | 0 | 0.0 | 0.0 | 0.00 | 0.00 | 0.00 | 89 | 1007.0 |
| 20260506091533 | 12 | 0 | 0.0 | 0.0 | 0.00 | 0.00 | 0.00 | 90 | 1007.1 |
| 20260506090032 | 12 | 0 | 0.0 | 0.0 | 0.00 | 0.00 | 0.00 | 90 | 1007.1 |
| 20260506084539 | 12 | 0 | 0.0 | 3.2 | 0.00 | 0.00 | 0.00 | 90 | 1007.4 |
| 20260506083032 | 12 | 360 | 0.0 | 4.8 | 0.00 | 0.00 | 0.00 | 90 | 1007.6 |
| 20260506081529 | 12 | 0 | 0.0 | 6.4 | 0.00 | 0.00 | 0.00 | 89 | 1007.6 |
| 20260506073032 | 13 | 0 | 0.0 | 0.0 | 0.00 | 0.00 | 0.00 | 87 | 1008.1 |
| 20260506071532 | 13 | 0 | 0.0 | 0.0 | 0.00 | 0.00 | 0.00 | 87 | 1008.1 |
| 20260506061532 | 14 | 0 | 0.0 | 0.0 | 0.00 | 0.00 | 0.00 | 84 | 1008.7 |
| 20260506044540 | 15 | 360 | 0.0 | 4.8 | 0.00 | 0.00 | 0.00 | 81 | 1008.8 |
| 20260506043035 | 15 | 0 | 0.0 | 3.2 | 0.00 | 0.00 | 0.00 | 81 | 1009.0 |
| 20260506041535 | 16 | 360 | 1.6 | 9.7 | 0.00 | 0.00 | 0.00 | 83 | 1008.8 |
| 20260506040034 | 16 | 360 | 1.6 | 6.4 | 0.00 | 0.00 | 0.00 | 86 | 1008.7 |
| 20260506034533 | 16 | 360 | 0.0 | 3.2 | 0.00 | 0.00 | 0.00 | 86 | 1008.5 |
| 20260506033035 | 16 | 360 | 0.0 | 3.2 | 0.00 | 0.00 | 0.00 | 85 | 1007.9 |
| 20260506031537 | 16 | 360 | 0.0 | 6.4 | 0.00 | 0.00 | 0.00 | 86 | 1007.4 |
| 20260506030055 | 16 | 0 | 0.0 | 3.2 | 0.00 | 0.00 | 0.00 | 85 | 1007.9 |
| 20260506024549 | 17 | 0 | 0.0 | 0.0 | 0.00 | 0.00 | 0.00 | 85 | 1007.3 |
| 20260506023030 | 17 | 0 | 0.0 | 0.0 | 0.00 | 0.00 | 0.00 | 84 | 1007.3 |
| 20260506021532 | 17 | 0 | 0.0 | 0.0 | 0.00 | 0.00 | 0.00 | 83 | 1007.2 |
| 20260506020033 | 17 | 0 | 0.0 | 1.6 | 0.00 | 0.00 | 0.00 | 82 | 1007.4 |
| 20260506014539 | 17 | 86 | 0.0 | 3.2 | 0.00 | 0.00 | 0.00 | 81 | 1007.5 |
| 20260506013035 | 17 | 0 | 0.0 | 0.0 | 0.00 | 0.00 | 0.00 | 81 | 1007.5 |
| 20260506011537 | 17 | 0 | 0.0 | 0.0 | 0.00 | 0.00 | 0.00 | 80 | 1007.5 |
| 20260506010031 | 17 | 0 | 0.0 | 0.0 | 0.00 | 0.00 | 0.00 | 80 | 1007.3 |
| 20260506004544 | 17 | 0 | 0.0 | 0.0 | 0.00 | 0.00 | 0.00 | 79 | 1007.0 |
| 20260506003039 | 17 | 145 | 0.0 | 4.8 | 0.00 | 0.00 | 0.00 | 79 | 1006.6 |
| 20260506001531 | 18 | 111 | 1.6 | 6.4 | 0.00 | 0.00 | 0.00 | 78 | 1006.4 |
| 20260506000030 | 18 | 0 | 0.0 | 8.0 | 0.00 | 0.00 | 0.00 | 77 | 1006.5 |
| 20260505234534 | 18 | 360 | 0.0 | 12.9 | 0.00 | 0.00 | 0.00 | 77 | 1006.6 |
| 20260505233032 | 18 | 86 | 1.6 | 8.0 | 0.00 | 0.00 | 0.00 | 76 | 1006.1 |
| 20260505231533 | 18 | 162 | 1.6 | 8.0 | 0.00 | 0.00 | 0.00 | 76 | 1006.1 |
| 20260505230042 | 19 | 70 | 3.2 | 9.7 | 0.00 | 0.00 | 0.00 | 74 | 1006.0 |
| 20260505224535 | 20 | 360 | 0.0 | 3.2 | 0.00 | 0.00 | 0.00 | 70 | 1006.1 |
| 20260505223029 | 21 | 360 | 1.6 | 8.0 | 0.00 | 0.00 | 0.00 | 66 | 1006.4 |
| 20260505221532 | 22 | 360 | 1.6 | 8.0 | 0.00 | 0.00 | 0.00 | 60 | 1006.8 |
| 20260505220040 | 24 | 360 | 4.8 | 17.7 | 0.00 | 0.00 | 0.00 | 50 | 1005.5 |
| 20260505214535 | 25 | 360 | 1.6 | 12.9 | 0.00 | 0.00 | 0.00 | 40 | 1004.5 |
| 20260505213035 | 25 | 360 | 3.2 | 17.7 | 0.00 | 0.00 | 0.00 | 40 | 1003.9 |
| 20260505211534 | 26 | 303 | 6.4 | 20.9 | 0.00 | 0.00 | 0.00 | 38 | 1003.5 |
| 20260505210031 | 26 | 192 | 8.0 | 33.8 | 0.00 | 0.00 | 0.00 | 40 | 1003.3 |
| 20260505204535 | 26 | 296 | 4.8 | 20.9 | 0.00 | 0.00 | 0.00 | 40 | 1003.2 |
| 20260505203037 | 26 | 288 | 4.8 | 29.0 | 0.00 | 0.00 | 0.00 | 41 | 1003.1 |
| 20260505201535 | 27 | 169 | 6.4 | 20.9 | 0.00 | 0.00 | 0.00 | 37 | 1003.7 |
| 20260505200033 | 27 | 300 | 11.3 | 35.4 | 0.00 | 0.00 | 0.00 | 37 | 1003.5 |
| 20260505194533 | 27 | 287 | 6.4 | 33.8 | 0.00 | 0.00 | 0.00 | 40 | 1003.4 |
| 20260505193035 | 27 | 312 | 9.7 | 35.4 | 0.00 | 0.00 | 0.00 | 39 | 1003.5 |
| 20260505191539 | 26 | 265 | 6.4 | 24.1 | 0.00 | 0.00 | 0.00 | 40 | 1003.8 |
| 20260505190038 | 27 | 105 | 6.4 | 27.4 | 0.00 | 0.00 | 0.00 | 39 | 1003.9 |
| 20260505184533 | 28 | 212 | 4.8 | 30.6 | 0.00 | 0.00 | 0.00 | 40 | 1004.0 |